EDDB Airport Information

Runway Information
Runway 07L Length 8891 ft width 148 ft
Elevation 148 ft Threshold 0 ft Heading 69
Runway 25R Length 8891 ft Width 148 ft
Elevation 145 ft Threshold 0 ft Heading 249
Runway 07R Length 9843 ft width 148 ft
Elevation 146 ft Threshold 0 ft Heading 69
Runway 25L Length 9843 ft Width 148 ft
Elevation 155 ft Threshold 0 ft Heading 249
Airport Frequencies
Type AFIS Name BERLIN INF Frequency 132.65 MHZ
Type APP Name BERLIN ARR Frequency 119.625 MHZ
Type ATIS Name ATIS Frequency 124.95 MHZ
Type DEP Name BERLIN DEP Frequency 120.625 MHZ
Type DIR Name BERLIN DIR Frequency 136.1 MHZ
Type GND Name GND Frequency 121.6 MHZ
Type INFO Name INFO Frequency 122.7 MHZ
Type TWR Name TWR Frequency 120.025 MHZ
Airport Navaids
Type DME Name Schonefeld Frequency 114400 KHZ
Type NDB Name Schonefeld Frequency 362 KHZ
Airport Weather Information & NOTAM
ADDS - METARS form results

(0012 UTC 18 January 2018)
 
METAR text: EDDB 172350Z 25013KT 9999 BKN016 02/00 Q1002 R25/2///95 TEMPO BKN012
Conditions at: EDDB (BERLIN/SCHONEFEL, DE) observed 2350 UTC 17 January 2018
Temperature: 2.0°C (36°F)
Dewpoint: 0.0°C (32°F) [RH = 87%]
Pressure (altimeter): 29.59 inches Hg (1002.0 mb)
Winds: from the WSW (250 degrees) at 15 MPH (13 knots; 6.8 m/s)
Visibility: 6 or more miles (10+ km)
Ceiling: 1600 feet AGL
Clouds: broken clouds at 1600 feet AGL
Weather: no significant weather observed at this time

METAR text: EDDB 172320Z 25011KT 9999 SCT020 BKN033 02/00 Q1002 R25/2///95 TEMPO BKN012
Conditions at: EDDB (BERLIN/SCHONEFEL, DE) observed 2320 UTC 17 January 2018
Temperature: 2.0°C (36°F)
Dewpoint: 0.0°C (32°F) [RH = 87%]
Pressure (altimeter): 29.59 inches Hg (1002.0 mb)
Winds: from the WSW (250 degrees) at 13 MPH (11 knots; 5.7 m/s)
Visibility: 6 or more miles (10+ km)
Ceiling: 3300 feet AGL
Clouds: scattered clouds at 2000 feet AGL
broken clouds at 3300 feet AGL
Weather: no significant weather observed at this time